Weather reports worldwide

Advertisment
Bradford, United Kingdom (99171): temperature & dewpoint: 06.12.2019 10:00:00 - 12.12.2019 10:00:00 (GMT)Bradford, United Kingdom (99171): temperature -20cm & temperature -100cm: 06.12.2019 10:00:00 - 12.12.2019 10:00:00 (GMT)Bradford, United Kingdom (99171): precipitation: 06.12.2019 10:00:00 - 12.12.2019 10:00:00 (GMT)
Date & Time tt [°C] td [°C] tt -20cm [°C] tt -100cm [°C] rr [mm]
12.12.2019 10:00:00 1,5 0,6 - - 0,0
12.12.2019 09:00:00 1,7 0,1 6,2 8,0 0,0
12.12.2019 08:00:00 2,3 0,5 - - 0,0
12.12.2019 07:00:00 1,8 0,2 - - 0,0
12.12.2019 06:00:00 2,5 0,5 - - 0,0
12.12.2019 05:00:00 2,4 0,4 - - 0,0
12.12.2019 04:00:00 2,1 0,2 - - 0,0
12.12.2019 03:00:00 1,8 -0,1 - - 0,0
12.12.2019 02:00:00 2,0 0,4 - - 0,0
12.12.2019 01:00:00 2,5 1,1 - - 0,2
12.12.2019 00:00:00 2,6 1,4 - - 0,0
11.12.2019 23:00:00 2,5 1,0 - - 0,0
11.12.2019 22:00:00 2,5 1,0 - - 0,0
11.12.2019 21:00:00 2,8 1,4 - - 0,2
11.12.2019 20:00:00 2,7 1,2 - - 0,0
11.12.2019 19:00:00 2,8 1,1 - - 0,0
11.12.2019 18:00:00 3,3 1,2 - - 0,0
11.12.2019 17:00:00 3,5 1,8 - - 0,2
11.12.2019 16:00:00 4,2 2,1 - - 0,0
11.12.2019 15:00:00 4,3 2,1 - - 0,0
11.12.2019 14:00:00 4,9 2,4 - - 0,0
11.12.2019 13:00:00 5,2 2,1 - - 0,0
11.12.2019 12:00:00 5,3 2,0 - - 0,0
11.12.2019 11:00:00 5,1 1,8 - - 0,0
11.12.2019 10:00:00 3,9 1,5 - - 0,0
11.12.2019 09:00:00 4,1 1,6 6,7 8,0 0,0
11.12.2019 08:00:00 3,9 1,6 - - 0,0
11.12.2019 07:00:00 3,9 1,3 - - 0,0
11.12.2019 06:00:00 4,1 1,4 - - 0,0
11.12.2019 05:00:00 4,1 1,3 - - 0,0
11.12.2019 04:00:00 4,6 2,0 - - 0,0
11.12.2019 03:00:00 4,6 2,1 - - 0,0
11.12.2019 02:00:00 5,3 2,6 - - 0,0
11.12.2019 01:00:00 5,7 2,7 - - 0,0
11.12.2019 00:00:00 5,7 2,7 - - 0,0
10.12.2019 23:00:00 6,0 3,1 - - 0,4
10.12.2019 22:00:00 5,9 3,0 - - 0,2
10.12.2019 21:00:00 6,1 3,4 - - 0,0
10.12.2019 20:00:00 5,9 3,8 - - 0,8
10.12.2019 19:00:00 7,1 4,8 - - 0,6
10.12.2019 18:00:00 7,2 5,5 - - 3,4
10.12.2019 17:00:00 12,0 10,4 - - 1,2
10.12.2019 16:00:00 11,9 10,1 - - 0,4
10.12.2019 15:00:00 12,1 9,5 - - 0,2
10.12.2019 14:00:00 11,8 9,1 - - 0,2
10.12.2019 13:00:00 11,3 8,0 - - 0,0
10.12.2019 12:00:00 10,1 7,4 - - 0,0
10.12.2019 11:00:00 8,9 6,3 - - 0,0
10.12.2019 10:00:00 8,4 5,5 - - 0,0
10.12.2019 09:00:00 7,8 4,7 6,5 8,0 0,2
10.12.2019 08:00:00 7,1 4,4 - - 0,0
10.12.2019 07:00:00 6,5 3,1 - - 0,0
10.12.2019 06:00:00 6,2 2,8 - - 0,0
10.12.2019 05:00:00 6,2 2,8 - - 0,0
10.12.2019 04:00:00 3,3 1,5 - - 0,0
10.12.2019 03:00:00 2,4 1,0 - - 0,0
10.12.2019 02:00:00 1,7 0,3 - - 0,0
10.12.2019 01:00:00 2,3 0,6 - - 0,0
10.12.2019 00:00:00 3,0 1,4 - - 0,0
09.12.2019 23:00:00 2,4 0,3 - - 0,0
09.12.2019 22:00:00 0,4 -0,8 - - 0,0
09.12.2019 21:00:00 0,7 -0,9 - - 0,0
09.12.2019 20:00:00 1,9 0,0 - - 0,0
09.12.2019 19:00:00 2,3 0,1 - - 0,0
09.12.2019 18:00:00 3,4 0,2 - - 0,0
09.12.2019 17:00:00 3,0 -0,2 - - 0,0
09.12.2019 16:00:00 4,4 -1,1 - - 0,0
09.12.2019 15:00:00 5,4 -1,8 - - 0,0
09.12.2019 14:00:00 5,9 -1,2 - - 0,0
09.12.2019 13:00:00 6,2 -1,3 - - 0,0
09.12.2019 12:00:00 6,0 -0,5 - - 0,0
09.12.2019 11:00:00 5,9 0,0 - - 0,0
09.12.2019 10:00:00 5,5 0,3 - - 0,0
09.12.2019 09:00:00 5,1 0,1 7,0 8,0 0,0
09.12.2019 08:00:00 5,4 0,3 - - 0,0
09.12.2019 07:00:00 5,6 1,2 - - 0,0
09.12.2019 06:00:00 5,8 1,8 - - 0,0
09.12.2019 05:00:00 6,0 2,3 - - 0,0
09.12.2019 04:00:00 6,3 4,2 - - 0,0
09.12.2019 03:00:00 6,4 4,4 - - 0,0
09.12.2019 02:00:00 6,2 3,7 - - 0,0
09.12.2019 01:00:00 6,2 4,4 - - 0,0
09.12.2019 00:00:00 5,4 4,0 - - 1,2
08.12.2019 23:00:00 5,3 4,0 - - 2,0
08.12.2019 22:00:00 5,3 3,1 - - 0,4
08.12.2019 21:00:00 5,8 2,6 - - 0,0
08.12.2019 20:00:00 5,8 2,7 - - 0,6
08.12.2019 19:00:00 6,0 2,2 - - 0,0
08.12.2019 18:00:00 6,1 1,6 - - 0,0
08.12.2019 17:00:00 6,2 1,6 - - 0,0
08.12.2019 16:00:00 6,0 2,3 - - 0,2
08.12.2019 15:00:00 7,0 1,9 - - 0,0
08.12.2019 14:00:00 6,3 2,4 - - 0,2
08.12.2019 13:00:00 7,6 2,5 - - 0,0
08.12.2019 12:00:00 7,4 2,8 - - 0,0
08.12.2019 11:00:00 7,3 3,8 - - 0,0
08.12.2019 10:00:00 6,5 3,9 - - 0,2
08.12.2019 09:00:00 6,5 3,9 7,2 8,0 0,4
08.12.2019 08:00:00 7,4 3,9 - - 0,0
08.12.2019 07:00:00 7,0 4,2 - - 0,6
08.12.2019 06:00:00 7,9 5,2 - - 0,2
08.12.2019 05:00:00 8,0 4,6 - - 1,2
08.12.2019 04:00:00 9,4 6,8 - - 0,6
08.12.2019 03:00:00 10,1 9,1 - - 1,0
08.12.2019 02:00:00 9,8 8,5 - - 0,4
08.12.2019 01:00:00 9,5 8,0 - - 0,8
08.12.2019 00:00:00 9,1 7,6 - - 1,6
07.12.2019 23:00:00 9,1 7,2 - - 0,6
07.12.2019 22:00:00 9,4 6,7 - - 0,0
07.12.2019 21:00:00 9,4 6,8 - - 0,0
07.12.2019 20:00:00 9,5 7,0 - - 0,0
07.12.2019 19:00:00 9,4 7,2 - - 0,0
07.12.2019 18:00:00 9,3 6,7 - - 0,0
07.12.2019 17:00:00 9,2 6,7 - - 0,0
07.12.2019 16:00:00 8,9 6,5 - - 0,0
07.12.2019 15:00:00 9,1 6,2 - - 0,0
07.12.2019 14:00:00 9,1 5,8 - - 0,0
07.12.2019 13:00:00 8,9 5,5 - - 0,0
07.12.2019 12:00:00 8,5 5,9 - - 0,0
07.12.2019 11:00:00 8,9 6,0 - - 0,0
07.12.2019 10:00:00 8,3 5,4 - - 0,0
07.12.2019 09:00:00 8,2 5,9 7,0 8,0 0,0
07.12.2019 08:00:00 8,0 5,8 - - 0,0
07.12.2019 07:00:00 7,8 5,5 - - 0,0
07.12.2019 06:00:00 8,2 6,1 - - 0,0
07.12.2019 05:00:00 8,2 6,4 - - 0,2
07.12.2019 04:00:00 8,2 6,3 - - 0,4
07.12.2019 03:00:00 8,4 5,6 - - 0,0
07.12.2019 02:00:00 8,6 5,8 - - 0,0
07.12.2019 01:00:00 8,6 5,6 - - 0,0
07.12.2019 00:00:00 8,5 5,9 - - 0,0
06.12.2019 23:00:00 8,6 6,1 - - 0,0
06.12.2019 22:00:00 8,5 6,0 - - 0,0
06.12.2019 21:00:00 8,5 5,9 - - 0,0
06.12.2019 20:00:00 8,9 6,4 - - 0,0
06.12.2019 19:00:00 8,7 6,1 - - 0,0
06.12.2019 18:00:00 8,6 6,4 - - 0,0
06.12.2019 17:00:00 8,6 5,8 - - 0,0
06.12.2019 16:00:00 9,0 6,8 - - 0,0
06.12.2019 15:00:00 9,4 7,1 - - 0,0
06.12.2019 14:00:00 9,4 7,2 - - 0,8
06.12.2019 13:00:00 10,1 7,7 - - 0,0
06.12.2019 12:00:00 10,6 7,4 - - 0,2
06.12.2019 11:00:00 11,1 9,5 - - 0,2
06.12.2019 10:00:00 11,2 9,5 - - 0,0

tt = temperature
td = dewpoint
tt -20cm = temperature -20cm
tt -100cm = temperature -100cm
rr = precipitation

Next stations